sensor_id;sensor_type;location;lat;lon;timestamp;temperature;humidity
52895;DHT22;38759;53.396;6.722;2023-10-13T00:02:02;13.50;99.90
52895;DHT22;38759;53.396;6.722;2023-10-13T00:04:30;13.50;99.90
52895;DHT22;38759;53.396;6.722;2023-10-13T00:07:01;13.50;99.90
52895;DHT22;38759;53.396;6.722;2023-10-13T00:09:28;13.50;99.90
52895;DHT22;38759;53.396;6.722;2023-10-13T00:12:07;13.50;99.90
52895;DHT22;38759;53.396;6.722;2023-10-13T00:14:39;13.50;99.90
52895;DHT22;38759;53.396;6.722;2023-10-13T00:17:07;13.60;99.90
52895;DHT22;38759;53.396;6.722;2023-10-13T00:19:35;13.60;99.90
52895;DHT22;38759;53.396;6.722;2023-10-13T00:22:11;13.60;99.90
52895;DHT22;38759;53.396;6.722;2023-10-13T00:24:41;13.70;99.90
52895;DHT22;38759;53.396;6.722;2023-10-13T00:27:20;13.70;99.90
52895;DHT22;38759;53.396;6.722;2023-10-13T00:29:57;13.70;99.90
52895;DHT22;38759;53.396;6.722;2023-10-13T00:32:49;13.70;99.90
52895;DHT22;38759;53.396;6.722;2023-10-13T00:35:28;13.70;99.90
52895;DHT22;38759;53.396;6.722;2023-10-13T00:38:07;13.80;99.90
52895;DHT22;38759;53.396;6.722;2023-10-13T00:40:42;13.80;99.90
52895;DHT22;38759;53.396;6.722;2023-10-13T00:43:10;13.80;99.90
52895;DHT22;38759;53.396;6.722;2023-10-13T00:45:45;13.80;99.90
52895;DHT22;38759;53.396;6.722;2023-10-13T00:48:25;13.80;99.90
52895;DHT22;38759;53.396;6.722;2023-10-13T00:51:02;13.90;99.90
52895;DHT22;38759;53.396;6.722;2023-10-13T00:53:31;13.90;99.90
52895;DHT22;38759;53.396;6.722;2023-10-13T00:56:03;13.90;99.90
52895;DHT22;38759;53.396;6.722;2023-10-13T00:58:47;13.90;99.90
52895;DHT22;38759;53.396;6.722;2023-10-13T01:01:16;14.00;99.90
52895;DHT22;38759;53.396;6.722;2023-10-13T01:03:51;14.00;99.90
52895;DHT22;38759;53.396;6.722;2023-10-13T01:06:33;14.00;99.90
52895;DHT22;38759;53.396;6.722;2023-10-13T01:09:08;14.00;99.90
52895;DHT22;38759;53.396;6.722;2023-10-13T01:11:50;14.10;99.90
52895;DHT22;38759;53.396;6.722;2023-10-13T01:14:22;14.10;99.90
52895;DHT22;38759;53.396;6.722;2023-10-13T01:16:49;14.10;99.90
52895;DHT22;38759;53.396;6.722;2023-10-13T01:19:19;14.10;99.90
52895;DHT22;38759;53.396;6.722;2023-10-13T01:21:55;14.10;99.90
52895;DHT22;38759;53.396;6.722;2023-10-13T01:24:28;14.20;99.90
52895;DHT22;38759;53.396;6.722;2023-10-13T01:26:57;14.20;99.90
52895;DHT22;38759;53.396;6.722;2023-10-13T01:29:24;14.30;99.90
52895;DHT22;38759;53.396;6.722;2023-10-13T01:31:54;14.30;99.90
52895;DHT22;38759;53.396;6.722;2023-10-13T01:34:21;14.30;99.90
52895;DHT22;38759;53.396;6.722;2023-10-13T01:36:55;14.30;99.90
52895;DHT22;38759;53.396;6.722;2023-10-13T01:39:22;14.40;99.90
52895;DHT22;38759;53.396;6.722;2023-10-13T01:41:52;14.50;99.90
52895;DHT22;38759;53.396;6.722;2023-10-13T01:44:25;14.50;99.90
52895;DHT22;38759;53.396;6.722;2023-10-13T01:47:02;14.50;99.90
52895;DHT22;38759;53.396;6.722;2023-10-13T01:49:32;14.50;99.90
52895;DHT22;38759;53.396;6.722;2023-10-13T01:52:06;14.60;99.90
52895;DHT22;38759;53.396;6.722;2023-10-13T01:54:32;14.70;99.90
52895;DHT22;38759;53.396;6.722;2023-10-13T01:56:58;14.70;99.90
52895;DHT22;38759;53.396;6.722;2023-10-13T01:59:25;14.80;99.90
52895;DHT22;38759;53.396;6.722;2023-10-13T02:01:52;14.80;99.90
52895;DHT22;38759;53.396;6.722;2023-10-13T02:04:21;14.90;99.90
52895;DHT22;38759;53.396;6.722;2023-10-13T02:06:47;14.90;99.90
52895;DHT22;38759;53.396;6.722;2023-10-13T02:09:13;14.90;99.90
52895;DHT22;38759;53.396;6.722;2023-10-13T02:11:43;15.00;99.90
52895;DHT22;38759;53.396;6.722;2023-10-13T02:14:13;15.00;99.90
52895;DHT22;38759;53.396;6.722;2023-10-13T02:16:42;15.00;99.90
52895;DHT22;38759;53.396;6.722;2023-10-13T02:19:08;15.00;99.90
52895;DHT22;38759;53.396;6.722;2023-10-13T02:21:34;15.00;99.90
52895;DHT22;38759;53.396;6.722;2023-10-13T02:24:08;15.00;99.90
52895;DHT22;38759;53.396;6.722;2023-10-13T02:26:44;15.10;99.90
52895;DHT22;38759;53.396;6.722;2023-10-13T02:29:10;15.10;99.90
52895;DHT22;38759;53.396;6.722;2023-10-13T02:31:43;15.10;99.90
52895;DHT22;38759;53.396;6.722;2023-10-13T02:34:20;15.10;99.90
52895;DHT22;38759;53.396;6.722;2023-10-13T02:36:48;15.10;99.90
52895;DHT22;38759;53.396;6.722;2023-10-13T02:39:18;15.20;99.90
52895;DHT22;38759;53.396;6.722;2023-10-13T02:41:52;15.20;99.90
52895;DHT22;38759;53.396;6.722;2023-10-13T02:44:21;15.30;99.90
52895;DHT22;38759;53.396;6.722;2023-10-13T02:46:57;15.30;99.90
52895;DHT22;38759;53.396;6.722;2023-10-13T02:49:26;15.30;99.90
52895;DHT22;38759;53.396;6.722;2023-10-13T02:51:55;15.30;99.90
52895;DHT22;38759;53.396;6.722;2023-10-13T02:54:21;15.30;99.90
52895;DHT22;38759;53.396;6.722;2023-10-13T02:56:47;15.30;99.90
52895;DHT22;38759;53.396;6.722;2023-10-13T02:59:23;15.30;99.90
52895;DHT22;38759;53.396;6.722;2023-10-13T03:02:01;15.40;99.90
52895;DHT22;38759;53.396;6.722;2023-10-13T03:04:32;15.40;99.90
52895;DHT22;38759;53.396;6.722;2023-10-13T03:06:58;15.40;99.90
52895;DHT22;38759;53.396;6.722;2023-10-13T03:09:25;15.50;99.90
52895;DHT22;38759;53.396;6.722;2023-10-13T03:11:51;15.50;99.90
52895;DHT22;38759;53.396;6.722;2023-10-13T03:14:21;15.50;99.90
52895;DHT22;38759;53.396;6.722;2023-10-13T03:16:57;15.50;99.90
52895;DHT22;38759;53.396;6.722;2023-10-13T03:19:49;15.60;99.90
52895;DHT22;38759;53.396;6.722;2023-10-13T03:22:16;15.60;99.90
52895;DHT22;38759;53.396;6.722;2023-10-13T03:24:45;15.60;99.90
52895;DHT22;38759;53.396;6.722;2023-10-13T03:27:16;15.60;99.90
52895;DHT22;38759;53.396;6.722;2023-10-13T03:29:44;15.60;99.90
52895;DHT22;38759;53.396;6.722;2023-10-13T03:32:15;15.60;99.90
52895;DHT22;38759;53.396;6.722;2023-10-13T03:34:44;15.60;99.90
52895;DHT22;38759;53.396;6.722;2023-10-13T03:37:25;15.60;99.90
52895;DHT22;38759;53.396;6.722;2023-10-13T03:40:10;15.60;99.90
52895;DHT22;38759;53.396;6.722;2023-10-13T03:42:45;15.70;99.90
52895;DHT22;38759;53.396;6.722;2023-10-13T03:45:26;15.70;99.90
52895;DHT22;38759;53.396;6.722;2023-10-13T03:47:52;15.70;99.90
52895;DHT22;38759;53.396;6.722;2023-10-13T03:50:19;15.60;99.90
52895;DHT22;38759;53.396;6.722;2023-10-13T03:52:55;15.70;99.90
52895;DHT22;38759;53.396;6.722;2023-10-13T03:55:25;15.60;99.90
52895;DHT22;38759;53.396;6.722;2023-10-13T03:57:57;15.70;99.90
52895;DHT22;38759;53.396;6.722;2023-10-13T04:00:25;15.70;99.90
52895;DHT22;38759;53.396;6.722;2023-10-13T04:02:53;15.70;99.90
52895;DHT22;38759;53.396;6.722;2023-10-13T04:05:39;15.70;99.90
52895;DHT22;38759;53.396;6.722;2023-10-13T04:08:08;15.70;99.90
52895;DHT22;38759;53.396;6.722;2023-10-13T04:10:53;15.70;99.90
52895;DHT22;38759;53.396;6.722;2023-10-13T04:13:19;15.80;99.90
52895;DHT22;38759;53.396;6.722;2023-10-13T04:16:04;15.70;99.90
52895;DHT22;38759;53.396;6.722;2023-10-13T04:18:47;15.80;99.90
52895;DHT22;38759;53.396;6.722;2023-10-13T04:21:36;15.80;99.90
52895;DHT22;38759;53.396;6.722;2023-10-13T04:24:09;15.80;99.90
52895;DHT22;38759;53.396;6.722;2023-10-13T04:26:53;15.80;99.90
52895;DHT22;38759;53.396;6.722;2023-10-13T04:29:38;15.80;99.90
52895;DHT22;38759;53.396;6.722;2023-10-13T04:32:22;15.80;99.90
52895;DHT22;38759;53.396;6.722;2023-10-13T04:34:57;15.80;99.90
52895;DHT22;38759;53.396;6.722;2023-10-13T04:37:35;15.90;99.90
52895;DHT22;38759;53.396;6.722;2023-10-13T04:40:15;15.80;99.90
52895;DHT22;38759;53.396;6.722;2023-10-13T04:42:44;15.90;99.90
52895;DHT22;38759;53.396;6.722;2023-10-13T04:45:19;15.80;99.90
52895;DHT22;38759;53.396;6.722;2023-10-13T04:47:59;15.80;99.90
52895;DHT22;38759;53.396;6.722;2023-10-13T04:50:48;15.80;99.90
52895;DHT22;38759;53.396;6.722;2023-10-13T04:53:17;15.90;99.90
52895;DHT22;38759;53.396;6.722;2023-10-13T04:56:12;15.90;99.90
52895;DHT22;38759;53.396;6.722;2023-10-13T04:59:01;15.80;99.90
52895;DHT22;38759;53.396;6.722;2023-10-13T05:02:01;15.80;99.90
52895;DHT22;38759;53.396;6.722;2023-10-13T05:04:46;15.90;99.90
52895;DHT22;38759;53.396;6.722;2023-10-13T05:07:30;15.90;99.90
52895;DHT22;38759;53.396;6.722;2023-10-13T05:10:15;15.90;99.90
52895;DHT22;38759;53.396;6.722;2023-10-13T05:12:59;15.90;99.90
52895;DHT22;38759;53.396;6.722;2023-10-13T05:15:50;15.90;99.90
52895;DHT22;38759;53.396;6.722;2023-10-13T05:18:34;15.90;99.90
52895;DHT22;38759;53.396;6.722;2023-10-13T05:21:19;15.90;99.90
52895;DHT22;38759;53.396;6.722;2023-10-13T05:24:04;15.90;99.90
52895;DHT22;38759;53.396;6.722;2023-10-13T05:26:48;15.90;99.90
52895;DHT22;38759;53.396;6.722;2023-10-13T05:29:33;15.90;99.90
52895;DHT22;38759;53.396;6.722;2023-10-13T05:32:17;16.00;99.90
52895;DHT22;38759;53.396;6.722;2023-10-13T05:35:01;15.90;99.90
52895;DHT22;38759;53.396;6.722;2023-10-13T05:37:46;15.90;99.90
52895;DHT22;38759;53.396;6.722;2023-10-13T05:40:30;16.00;99.90
52895;DHT22;38759;53.396;6.722;2023-10-13T05:43:14;16.00;99.90
52895;DHT22;38759;53.396;6.722;2023-10-13T05:46:03;16.00;99.90
52895;DHT22;38759;53.396;6.722;2023-10-13T05:48:47;16.00;99.90
52895;DHT22;38759;53.396;6.722;2023-10-13T05:51:22;16.00;99.90
52895;DHT22;38759;53.396;6.722;2023-10-13T05:54:06;15.90;99.90
52895;DHT22;38759;53.396;6.722;2023-10-13T05:56:45;16.00;99.90
52895;DHT22;38759;53.396;6.722;2023-10-13T05:59:30;15.90;99.90
52895;DHT22;38759;53.396;6.722;2023-10-13T06:02:16;16.00;99.90
52895;DHT22;38759;53.396;6.722;2023-10-13T06:05:05;15.90;99.90
52895;DHT22;38759;53.396;6.722;2023-10-13T06:07:50;15.90;99.90
52895;DHT22;38759;53.396;6.722;2023-10-13T06:10:34;15.90;99.90
52895;DHT22;38759;53.396;6.722;2023-10-13T06:13:19;15.90;99.90
52895;DHT22;38759;53.396;6.722;2023-10-13T06:16:12;15.90;99.90
52895;DHT22;38759;53.396;6.722;2023-10-13T06:18:56;15.80;99.90
52895;DHT22;38759;53.396;6.722;2023-10-13T06:21:41;15.80;99.90
52895;DHT22;38759;53.396;6.722;2023-10-13T06:24:25;15.70;99.90
52895;DHT22;38759;53.396;6.722;2023-10-13T06:27:09;15.70;99.90
52895;DHT22;38759;53.396;6.722;2023-10-13T06:29:54;15.70;99.90
52895;DHT22;38759;53.396;6.722;2023-10-13T06:32:20;15.70;99.90
52895;DHT22;38759;53.396;6.722;2023-10-13T06:34:46;15.70;99.90
52895;DHT22;38759;53.396;6.722;2023-10-13T06:37:16;15.70;99.90
52895;DHT22;38759;53.396;6.722;2023-10-13T06:39:52;15.70;99.90
52895;DHT22;38759;53.396;6.722;2023-10-13T06:42:25;15.70;99.90
52895;DHT22;38759;53.396;6.722;2023-10-13T06:45:00;15.70;99.90
52895;DHT22;38759;53.396;6.722;2023-10-13T06:47:37;15.70;99.90
52895;DHT22;38759;53.396;6.722;2023-10-13T06:50:15;15.70;99.90
52895;DHT22;38759;53.396;6.722;2023-10-13T06:52:50;15.70;99.90
52895;DHT22;38759;53.396;6.722;2023-10-13T06:55:16;15.70;99.90
52895;DHT22;38759;53.396;6.722;2023-10-13T06:57:54;15.60;99.90
52895;DHT22;38759;53.396;6.722;2023-10-13T07:00:25;15.70;99.90
52895;DHT22;38759;53.396;6.722;2023-10-13T07:02:54;15.70;99.90
52895;DHT22;38759;53.396;6.722;2023-10-13T07:05:33;15.70;99.90
52895;DHT22;38759;53.396;6.722;2023-10-13T07:08:00;15.70;99.90
52895;DHT22;38759;53.396;6.722;2023-10-13T07:10:30;15.70;99.90
52895;DHT22;38759;53.396;6.722;2023-10-13T07:12:57;15.80;99.90
52895;DHT22;38759;53.396;6.722;2023-10-13T07:15:26;15.80;99.90
52895;DHT22;38759;53.396;6.722;2023-10-13T07:17:55;15.80;99.90
52895;DHT22;38759;53.396;6.722;2023-10-13T07:20:25;15.90;99.90
52895;DHT22;38759;53.396;6.722;2023-10-13T07:23:00;15.90;99.90
52895;DHT22;38759;53.396;6.722;2023-10-13T07:25:29;15.90;99.90
52895;DHT22;38759;53.396;6.722;2023-10-13T07:28:02;16.00;99.90
52895;DHT22;38759;53.396;6.722;2023-10-13T07:30:34;16.00;99.90
52895;DHT22;38759;53.396;6.722;2023-10-13T07:33:15;16.00;99.90
52895;DHT22;38759;53.396;6.722;2023-10-13T07:35:58;16.00;99.90
52895;DHT22;38759;53.396;6.722;2023-10-13T07:38:24;16.10;99.90
52895;DHT22;38759;53.396;6.722;2023-10-13T07:40:51;16.20;99.90
52895;DHT22;38759;53.396;6.722;2023-10-13T07:43:17;16.20;99.90
52895;DHT22;38759;53.396;6.722;2023-10-13T07:45:47;16.20;99.90
52895;DHT22;38759;53.396;6.722;2023-10-13T07:48:18;16.20;99.90
52895;DHT22;38759;53.396;6.722;2023-10-13T07:50:58;16.20;99.90
52895;DHT22;38759;53.396;6.722;2023-10-13T07:53:27;16.20;99.90
52895;DHT22;38759;53.396;6.722;2023-10-13T07:56:00;16.20;99.90
52895;DHT22;38759;53.396;6.722;2023-10-13T07:58:31;16.20;99.90
52895;DHT22;38759;53.396;6.722;2023-10-13T08:01:00;16.20;99.90
52895;DHT22;38759;53.396;6.722;2023-10-13T08:03:35;16.20;99.90
52895;DHT22;38759;53.396;6.722;2023-10-13T08:06:19;16.10;99.90
52895;DHT22;38759;53.396;6.722;2023-10-13T08:08:46;16.10;99.90
52895;DHT22;38759;53.396;6.722;2023-10-13T08:11:17;16.10;99.90
52895;DHT22;38759;53.396;6.722;2023-10-13T08:14:08;16.10;99.90
52895;DHT22;38759;53.396;6.722;2023-10-13T08:16:39;16.10;99.90
52895;DHT22;38759;53.396;6.722;2023-10-13T08:19:14;16.00;99.90
52895;DHT22;38759;53.396;6.722;2023-10-13T08:21:43;16.00;99.90
52895;DHT22;38759;53.396;6.722;2023-10-13T08:24:17;16.00;99.90
52895;DHT22;38759;53.396;6.722;2023-10-13T08:26:50;16.00;99.90
52895;DHT22;38759;53.396;6.722;2023-10-13T08:29:24;16.00;99.90
52895;DHT22;38759;53.396;6.722;2023-10-13T08:31:55;16.00;99.90
52895;DHT22;38759;53.396;6.722;2023-10-13T08:34:40;16.00;99.90
52895;DHT22;38759;53.396;6.722;2023-10-13T08:37:09;16.00;99.90
52895;DHT22;38759;53.396;6.722;2023-10-13T08:39:47;16.10;99.90
52895;DHT22;38759;53.396;6.722;2023-10-13T08:45:18;16.00;99.90
52895;DHT22;38759;53.396;6.722;2023-10-13T08:50:35;16.00;99.90
52895;DHT22;38759;53.396;6.722;2023-10-13T08:56:07;16.10;99.90
52895;DHT22;38759;53.396;6.722;2023-10-13T08:58:35;16.10;99.90
52895;DHT22;38759;53.396;6.722;2023-10-13T09:06:58;16.20;99.90
52895;DHT22;38759;53.396;6.722;2023-10-13T09:12:24;16.30;99.90
52895;DHT22;38759;53.396;6.722;2023-10-13T09:15:04;16.40;99.90
52895;DHT22;38759;53.396;6.722;2023-10-13T09:17:32;16.40;99.90
52895;DHT22;38759;53.396;6.722;2023-10-13T09:20:02;16.50;99.90
52895;DHT22;38759;53.396;6.722;2023-10-13T09:22:49;16.50;99.90
52895;DHT22;38759;53.396;6.722;2023-10-13T09:25:27;16.60;99.90
52895;DHT22;38759;53.396;6.722;2023-10-13T09:27:58;16.60;99.90
52895;DHT22;38759;53.396;6.722;2023-10-13T09:30:26;16.70;99.90
52895;DHT22;38759;53.396;6.722;2023-10-13T09:33:01;16.70;99.90
52895;DHT22;38759;53.396;6.722;2023-10-13T09:35:28;16.80;99.90
52895;DHT22;38759;53.396;6.722;2023-10-13T09:37:58;17.00;99.90
52895;DHT22;38759;53.396;6.722;2023-10-13T09:40:24;17.10;99.90
52895;DHT22;38759;53.396;6.722;2023-10-13T09:42:52;17.20;99.90
52895;DHT22;38759;53.396;6.722;2023-10-13T09:45:22;17.30;99.90
52895;DHT22;38759;53.396;6.722;2023-10-13T09:47:52;17.40;99.90
52895;DHT22;38759;53.396;6.722;2023-10-13T09:50:23;17.50;99.90
52895;DHT22;38759;53.396;6.722;2023-10-13T09:52:52;17.60;99.90
52895;DHT22;38759;53.396;6.722;2023-10-13T09:55:33;17.60;99.90
52895;DHT22;38759;53.396;6.722;2023-10-13T09:58:04;17.70;99.90
52895;DHT22;38759;53.396;6.722;2023-10-13T10:00:56;17.80;99.90
52895;DHT22;38759;53.396;6.722;2023-10-13T10:03:48;17.90;99.90
52895;DHT22;38759;53.396;6.722;2023-10-13T10:06:33;18.00;99.90
52895;DHT22;38759;53.396;6.722;2023-10-13T10:09:09;18.10;99.90
52895;DHT22;38759;53.396;6.722;2023-10-13T10:14:16;18.10;99.90
52895;DHT22;38759;53.396;6.722;2023-10-13T10:19:29;18.20;99.90
52895;DHT22;38759;53.396;6.722;2023-10-13T10:22:02;18.20;99.90
52895;DHT22;38759;53.396;6.722;2023-10-13T10:24:44;18.20;99.90
52895;DHT22;38759;53.396;6.722;2023-10-13T10:27:11;18.30;99.90
52895;DHT22;38759;53.396;6.722;2023-10-13T10:29:52;18.30;99.90
52895;DHT22;38759;53.396;6.722;2023-10-13T10:32:18;18.30;99.90
52895;DHT22;38759;53.396;6.722;2023-10-13T10:34:44;18.40;99.90
52895;DHT22;38759;53.396;6.722;2023-10-13T10:37:11;18.40;99.90
52895;DHT22;38759;53.396;6.722;2023-10-13T10:39:38;18.50;99.90
52895;DHT22;38759;53.396;6.722;2023-10-13T10:42:11;18.50;99.90
52895;DHT22;38759;53.396;6.722;2023-10-13T10:44:54;18.50;99.90
52895;DHT22;38759;53.396;6.722;2023-10-13T10:47:31;18.50;99.90
52895;DHT22;38759;53.396;6.722;2023-10-13T10:50:00;18.50;99.90
52895;DHT22;38759;53.396;6.722;2023-10-13T10:52:34;18.60;99.90
52895;DHT22;38759;53.396;6.722;2023-10-13T10:55:03;18.70;99.90
52895;DHT22;38759;53.396;6.722;2023-10-13T10:57:42;18.90;99.90
52895;DHT22;38759;53.396;6.722;2023-10-13T11:00:23;18.90;99.90
52895;DHT22;38759;53.396;6.722;2023-10-13T11:02:58;19.00;99.90
52895;DHT22;38759;53.396;6.722;2023-10-13T11:05:24;19.10;99.90
52895;DHT22;38759;53.396;6.722;2023-10-13T11:07:58;19.10;99.90
52895;DHT22;38759;53.396;6.722;2023-10-13T11:10:23;19.10;99.90
52895;DHT22;38759;53.396;6.722;2023-10-13T11:12:57;19.20;99.90
52895;DHT22;38759;53.396;6.722;2023-10-13T11:15:44;19.30;99.90
52895;DHT22;38759;53.396;6.722;2023-10-13T11:18:10;19.40;99.90
52895;DHT22;38759;53.396;6.722;2023-10-13T11:20:43;19.50;99.90
52895;DHT22;38759;53.396;6.722;2023-10-13T11:23:13;19.60;99.90
52895;DHT22;38759;53.396;6.722;2023-10-13T11:25:39;19.80;99.90
52895;DHT22;38759;53.396;6.722;2023-10-13T11:28:15;20.00;99.90
52895;DHT22;38759;53.396;6.722;2023-10-13T11:30:53;20.00;99.90
52895;DHT22;38759;53.396;6.722;2023-10-13T11:33:24;20.00;99.90
52895;DHT22;38759;53.396;6.722;2023-10-13T11:35:52;19.90;99.90
52895;DHT22;38759;53.396;6.722;2023-10-13T11:41:03;19.70;99.90
52895;DHT22;38759;53.396;6.722;2023-10-13T11:43:46;19.70;99.90
52895;DHT22;38759;53.396;6.722;2023-10-13T11:46:21;19.60;99.90
52895;DHT22;38759;53.396;6.722;2023-10-13T11:51:34;19.70;99.90
52895;DHT22;38759;53.396;6.722;2023-10-13T11:54:03;19.80;99.90
52895;DHT22;38759;53.396;6.722;2023-10-13T11:56:29;19.80;99.90
52895;DHT22;38759;53.396;6.722;2023-10-13T11:58:55;19.80;99.90
52895;DHT22;38759;53.396;6.722;2023-10-13T12:01:27;19.80;99.90
52895;DHT22;38759;53.396;6.722;2023-10-13T12:04:11;19.70;99.90
52895;DHT22;38759;53.396;6.722;2023-10-13T12:06:55;19.70;99.90
52895;DHT22;38759;53.396;6.722;2023-10-13T12:09:40;19.70;99.90
52895;DHT22;38759;53.396;6.722;2023-10-13T12:12:27;19.60;99.90
52895;DHT22;38759;53.396;6.722;2023-10-13T12:14:54;19.60;99.90
52895;DHT22;38759;53.396;6.722;2023-10-13T12:17:28;19.40;99.90
52895;DHT22;38759;53.396;6.722;2023-10-13T12:19:57;19.20;99.90
52895;DHT22;38759;53.396;6.722;2023-10-13T12:22:24;19.10;99.90
52895;DHT22;38759;53.396;6.722;2023-10-13T12:24:56;18.90;99.90
52895;DHT22;38759;53.396;6.722;2023-10-13T12:27:22;18.70;99.90
52895;DHT22;38759;53.396;6.722;2023-10-13T12:30:08;18.60;99.90
52895;DHT22;38759;53.396;6.722;2023-10-13T12:32:38;18.50;99.90
52895;DHT22;38759;53.396;6.722;2023-10-13T12:35:10;18.50;99.90
52895;DHT22;38759;53.396;6.722;2023-10-13T12:37:36;18.50;99.90
52895;DHT22;38759;53.396;6.722;2023-10-13T12:40:09;18.60;99.90
52895;DHT22;38759;53.396;6.722;2023-10-13T12:42:54;18.60;99.90
52895;DHT22;38759;53.396;6.722;2023-10-13T12:45:49;18.60;99.90
52895;DHT22;38759;53.396;6.722;2023-10-13T12:48:34;18.50;99.90
52895;DHT22;38759;53.396;6.722;2023-10-13T12:51:19;18.50;99.90
52895;DHT22;38759;53.396;6.722;2023-10-13T12:54:01;18.40;99.90
52895;DHT22;38759;53.396;6.722;2023-10-13T12:56:34;18.30;99.90
52895;DHT22;38759;53.396;6.722;2023-10-13T12:59:07;18.30;99.90
52895;DHT22;38759;53.396;6.722;2023-10-13T13:01:34;18.30;99.90
52895;DHT22;38759;53.396;6.722;2023-10-13T13:04:00;18.30;99.90
52895;DHT22;38759;53.396;6.722;2023-10-13T13:06:29;18.30;99.90
52895;DHT22;38759;53.396;6.722;2023-10-13T13:08:57;18.30;99.90
52895;DHT22;38759;53.396;6.722;2023-10-13T13:11:24;18.30;99.90
52895;DHT22;38759;53.396;6.722;2023-10-13T13:13:50;18.20;99.90
52895;DHT22;38759;53.396;6.722;2023-10-13T13:16:18;18.20;99.90
52895;DHT22;38759;53.396;6.722;2023-10-13T13:18:45;18.30;99.90
52895;DHT22;38759;53.396;6.722;2023-10-13T13:21:11;18.30;99.90
52895;DHT22;38759;53.396;6.722;2023-10-13T13:23:47;18.20;99.90
52895;DHT22;38759;53.396;6.722;2023-10-13T13:26:13;18.10;99.90
52895;DHT22;38759;53.396;6.722;2023-10-13T13:28:43;18.20;99.90
52895;DHT22;38759;53.396;6.722;2023-10-13T13:31:09;18.20;99.90
52895;DHT22;38759;53.396;6.722;2023-10-13T13:33:38;18.10;99.90
52895;DHT22;38759;53.396;6.722;2023-10-13T13:36:07;18.10;99.90
52895;DHT22;38759;53.396;6.722;2023-10-13T13:38:39;18.10;99.90
52895;DHT22;38759;53.396;6.722;2023-10-13T13:41:12;18.00;99.90
52895;DHT22;38759;53.396;6.722;2023-10-13T13:43:45;18.00;99.90
52895;DHT22;38759;53.396;6.722;2023-10-13T13:46:26;18.00;99.90
52895;DHT22;38759;53.396;6.722;2023-10-13T13:48:58;18.00;99.90
52895;DHT22;38759;53.396;6.722;2023-10-13T13:51:29;17.90;99.90
52895;DHT22;38759;53.396;6.722;2023-10-13T13:53:58;17.90;99.90
52895;DHT22;38759;53.396;6.722;2023-10-13T13:56:24;17.90;99.90
52895;DHT22;38759;53.396;6.722;2023-10-13T13:58:54;17.90;99.90
52895;DHT22;38759;53.396;6.722;2023-10-13T14:01:24;17.90;99.90
52895;DHT22;38759;53.396;6.722;2023-10-13T14:03:54;17.90;99.90
52895;DHT22;38759;53.396;6.722;2023-10-13T14:06:28;17.90;99.90
52895;DHT22;38759;53.396;6.722;2023-10-13T14:08:56;17.90;99.90
52895;DHT22;38759;53.396;6.722;2023-10-13T14:11:32;17.90;99.90
52895;DHT22;38759;53.396;6.722;2023-10-13T14:14:14;18.00;99.90
52895;DHT22;38759;53.396;6.722;2023-10-13T14:16:53;18.00;99.90
52895;DHT22;38759;53.396;6.722;2023-10-13T14:19:19;18.10;99.90
52895;DHT22;38759;53.396;6.722;2023-10-13T14:21:58;18.10;99.90
52895;DHT22;38759;53.396;6.722;2023-10-13T14:24:24;18.10;99.90
52895;DHT22;38759;53.396;6.722;2023-10-13T14:29:19;18.20;99.90
52895;DHT22;38759;53.396;6.722;2023-10-13T14:31:45;18.30;99.90
52895;DHT22;38759;53.396;6.722;2023-10-13T14:34:14;18.30;99.90
52895;DHT22;38759;53.396;6.722;2023-10-13T14:36:40;18.30;99.90
52895;DHT22;38759;53.396;6.722;2023-10-13T14:39:09;18.30;99.90
52895;DHT22;38759;53.396;6.722;2023-10-13T14:41:38;18.30;99.90
52895;DHT22;38759;53.396;6.722;2023-10-13T14:44:04;18.30;99.90
52895;DHT22;38759;53.396;6.722;2023-10-13T14:46:34;18.30;99.90
52895;DHT22;38759;53.396;6.722;2023-10-13T14:49:05;18.30;99.90
52895;DHT22;38759;53.396;6.722;2023-10-13T14:51:30;18.30;99.90
52895;DHT22;38759;53.396;6.722;2023-10-13T14:53:57;18.30;99.90
52895;DHT22;38759;53.396;6.722;2023-10-13T14:56:26;18.30;99.90
52895;DHT22;38759;53.396;6.722;2023-10-13T14:58:53;18.30;99.90
52895;DHT22;38759;53.396;6.722;2023-10-13T15:01:20;18.30;99.90
52895;DHT22;38759;53.396;6.722;2023-10-13T15:03:48;18.30;99.90
52895;DHT22;38759;53.396;6.722;2023-10-13T15:06:27;18.30;99.90
52895;DHT22;38759;53.396;6.722;2023-10-13T15:08:58;18.40;99.90
52895;DHT22;38759;53.396;6.722;2023-10-13T15:11:25;18.40;99.90
52895;DHT22;38759;53.396;6.722;2023-10-13T15:13:55;18.40;99.90
52895;DHT22;38759;53.396;6.722;2023-10-13T15:16:26;18.40;99.90
52895;DHT22;38759;53.396;6.722;2023-10-13T15:18:52;18.40;99.90
52895;DHT22;38759;53.396;6.722;2023-10-13T15:21:26;18.40;99.90
52895;DHT22;38759;53.396;6.722;2023-10-13T15:24:03;18.40;99.90
52895;DHT22;38759;53.396;6.722;2023-10-13T15:26:33;18.50;99.90
52895;DHT22;38759;53.396;6.722;2023-10-13T15:29:04;18.50;99.90
52895;DHT22;38759;53.396;6.722;2023-10-13T15:31:34;18.50;99.90
52895;DHT22;38759;53.396;6.722;2023-10-13T15:34:01;18.50;99.90
52895;DHT22;38759;53.396;6.722;2023-10-13T15:36:42;18.40;99.90
52895;DHT22;38759;53.396;6.722;2023-10-13T15:39:11;18.40;99.90
52895;DHT22;38759;53.396;6.722;2023-10-13T15:41:41;18.20;99.90
52895;DHT22;38759;53.396;6.722;2023-10-13T15:44:11;18.20;99.90
52895;DHT22;38759;53.396;6.722;2023-10-13T15:46:39;18.20;99.90
52895;DHT22;38759;53.396;6.722;2023-10-13T15:49:05;18.10;99.90
52895;DHT22;38759;53.396;6.722;2023-10-13T15:51:34;18.10;99.90
52895;DHT22;38759;53.396;6.722;2023-10-13T15:54:02;18.10;99.90
52895;DHT22;38759;53.396;6.722;2023-10-13T15:56:29;18.10;99.90
52895;DHT22;38759;53.396;6.722;2023-10-13T15:59:00;18.20;99.90
52895;DHT22;38759;53.396;6.722;2023-10-13T16:01:27;18.10;99.90
52895;DHT22;38759;53.396;6.722;2023-10-13T16:03:53;18.10;99.90
52895;DHT22;38759;53.396;6.722;2023-10-13T16:06:19;18.10;99.90
52895;DHT22;38759;53.396;6.722;2023-10-13T16:08:45;18.10;99.90
52895;DHT22;38759;53.396;6.722;2023-10-13T16:11:12;18.20;99.90
52895;DHT22;38759;53.396;6.722;2023-10-13T16:13:42;18.20;99.90
52895;DHT22;38759;53.396;6.722;2023-10-13T16:16:18;18.20;99.90
52895;DHT22;38759;53.396;6.722;2023-10-13T16:18:45;18.20;99.90
52895;DHT22;38759;53.396;6.722;2023-10-13T16:21:13;18.10;99.90
52895;DHT22;38759;53.396;6.722;2023-10-13T16:23:43;18.20;99.90
52895;DHT22;38759;53.396;6.722;2023-10-13T16:26:12;18.20;99.90
52895;DHT22;38759;53.396;6.722;2023-10-13T16:28:38;18.10;99.90
52895;DHT22;38759;53.396;6.722;2023-10-13T16:31:07;18.10;99.90
52895;DHT22;38759;53.396;6.722;2023-10-13T16:33:37;18.10;99.90
52895;DHT22;38759;53.396;6.722;2023-10-13T16:36:08;18.10;99.90
52895;DHT22;38759;53.396;6.722;2023-10-13T16:38:36;18.10;99.90
52895;DHT22;38759;53.396;6.722;2023-10-13T16:41:03;18.10;99.90